Terminal Aerodrome Forecast
Issued by NWS

Home | Current Version | Previous Version | Text Only | Print | Product List | Glossary On
Versions: 1 2 3 4 5 6 7 8 9 10 11 12 13 14 15 16 17 18 19 20 21 22 23 24 25 26 27 28 29 30 31
000
FTUS45 KTWC 271739
TAFOLS
TAF
KOLS 271739Z 2718/2818 23005KT P6SM SCT120 BKN200
     FM272200 27008KT P6SM VCTS SCT070CB BKN110 OVC200
     FM280200 08005KT P6SM VCSH BKN070 BKN110 OVC200
     FM280500 VRB03KT P6SM SCT140 BKN200=

USA.gov is the U.S. government's official web portal to all federal, state and local government web resources and services.